Time;durP1;ratioP1;P1;durP2;ratioP2;P2;SDS_P1;SDS_P2;PMS_P1;PMS_P2;Temp;Humidity;BMP_temperature;BMP_pressure;BME280_temperature;BME280_humidity;BME280_pressure;Samples;Min_cycle;Max_cycle;Signal;HPM_P1;HPM_P2
2023/01/31 00:01:16;;;;;;;;;;;;;;;;;;;;;
2023/01/31 00:03:54;;;;;;;;;;;;;;;;;;;;;
2023/01/31 00:06:30;;;;;;;;;;;1.10;99.90;;;;;;5089198;28;19913;-90
2023/01/31 00:08:59;;;;;;;;;;;4.00;99.90;;;;;;5076062;28;20152;-91
2023/01/31 00:11:28;;;;;;;;;;;2.80;99.90;;;;;;5077510;28;19924;-89
2023/01/31 00:13:59;;;;;;;;;;;2.80;99.90;;;;;;5091456;28;19929;-90
2023/01/31 00:16:45;;;;;;;;;;;3.30;99.90;;;;;;5079693;28;19973;-89
2023/01/31 00:19:11;;;;;;;;;;;1.90;99.90;;;;;;5074544;28;19921;-89
2023/01/31 00:21:43;;;;;;;;;;;0.10;99.90;;;;;;5080155;28;19944;-90
2023/01/31 00:24:15;;;;;;;;;;;3.30;99.90;;;;;;5061000;28;19921;-88
2023/01/31 00:26:55;;;;;;;;;;;2.40;99.90;;;;;;5093651;28;19936;-88
2023/01/31 00:29:33;;;;;;;;;;;3.30;99.90;;;;;;5060105;28;19921;-89
2023/01/31 00:32:03;;;;;;;;;;;4.20;99.90;;;;;;5066738;28;19920;-90
2023/01/31 00:34:36;;;;;;;;;;;5.40;99.90;;;;;;5056418;28;20355;-90
2023/01/31 00:40:09;;;;;;;;;;;1.50;99.90;;;;;;5056344;28;19968;-90
2023/01/31 00:42:45;;;;;;;;;;;;;;;;;;;;;
2023/01/31 00:45:16;;;;;;;;;;;3.10;99.90;;;;;;5073134;28;19924;-89
2023/01/31 00:47:51;;;;;;;;;;;2.60;99.90;;;;;;5046482;28;20364;-90
2023/01/31 00:50:30;;;;;;;;;;;;;;;;;;;;;
2023/01/31 00:53:22;;;;;;;;;;;;;;;;;;;;;
2023/01/31 00:56:27;;;;;;;;;;;;;;;;;;;;;
2023/01/31 01:05:14;;;;;;;;;;;;;;;;;;;;;
2023/01/31 01:07:48;;;;;;;;;;;6.40;99.90;;;;;;5063891;28;20090;-90
2023/01/31 01:14:03;;;;;;;;;;;0.30;99.90;;;;;;5098476;27;20018;-90
2023/01/31 01:16:58;;;;;;;;;;;3.60;99.90;;;;;;5143512;27;19983;-89
2023/01/31 01:19:32;;;;;;;;;;;2.60;99.90;;;;;;5119569;27;20446;-89
2023/01/31 01:22:00;;;;;;;;;;;2.30;99.90;;;;;;5120467;27;19967;-89
2023/01/31 01:24:31;;;;;;;;;;;5.40;99.90;;;;;;5129722;27;19923;-89
2023/01/31 01:27:04;;;;;;;;;;;2.70;99.90;;;;;;5117836;27;19962;-89
2023/01/31 01:29:47;;;;;;;;;;;3.30;99.90;;;;;;5136974;27;19969;-89
2023/01/31 01:32:44;;;;;;;;;;;5.20;99.90;;;;;;5134342;27;19923;-90
2023/01/31 01:35:23;;;;;;;;;;;5.40;99.90;;;;;;5139628;27;20336;-88
2023/01/31 01:38:13;;;;;;;;;;;3.00;99.90;;;;;;5139084;27;20274;-88
2023/01/31 01:40:41;;;;;;;;;;;0.50;99.90;;;;;;5138670;27;19971;-88
2023/01/31 01:43:12;;;;;;;;;;;2.80;99.90;;;;;;5116285;27;19937;-88
2023/01/31 01:45:45;;;;;;;;;;;5.40;99.90;;;;;;5135631;27;19975;-88
2023/01/31 01:48:16;;;;;;;;;;;3.70;99.90;;;;;;5132982;27;19923;-89
2023/01/31 01:50:58;;;;;;;;;;;2.00;99.90;;;;;;5148095;27;19927;-88
2023/01/31 01:53:27;;;;;;;;;;;2.30;99.90;;;;;;5135425;27;20293;-88
2023/01/31 01:56:13;;;;;;;;;;;5.40;99.90;;;;;;5117858;27;20259;-88
2023/01/31 01:58:46;;;;;;;;;;;5.60;99.90;;;;;;5140765;27;19922;-88
2023/01/31 02:01:15;;;;;;;;;;;5.50;99.90;;;;;;5139797;27;20000;-88
2023/01/31 02:03:44;;;;;;;;;;;2.40;99.90;;;;;;5135129;27;20286;-88
2023/01/31 02:06:10;;;;;;;;;;;5.20;99.90;;;;;;5147923;27;19988;-88
2023/01/31 02:08:40;;;;;;;;;;;5.30;99.90;;;;;;5127444;27;20367;-88
2023/01/31 02:11:26;;;;;;;;;;;2.50;99.90;;;;;;5154926;27;19930;-88
2023/01/31 02:14:00;;;;;;;;;;;4.80;99.90;;;;;;5148178;27;19977;-90
2023/01/31 02:16:25;;;;;;;;;;;2.30;99.90;;;;;;5135100;27;19923;-88
2023/01/31 02:18:54;;;;;;;;;;;2.50;99.90;;;;;;5141129;27;20438;-89
2023/01/31 02:21:44;;;;;;;;;;;3.40;99.90;;;;;;5112881;27;19924;-88
2023/01/31 02:24:36;;;;;;;;;;;5.20;99.90;;;;;;5105559;27;19966;-89
2023/01/31 02:27:20;;;;;;;;;;;2.90;99.90;;;;;;5112567;27;19946;-88
2023/01/31 02:30:09;;;;;;;;;;;2.90;99.90;;;;;;5132861;27;19988;-88
2023/01/31 02:32:47;;;;;;;;;;;0.70;99.90;;;;;;5121776;27;19968;-88
2023/01/31 02:35:21;;;;;;;;;;;3.50;99.90;;;;;;5121578;27;20011;-88
2023/01/31 02:38:03;;;;;;;;;;;2.90;99.90;;;;;;5133203;27;19938;-88
2023/01/31 02:40:43;;;;;;;;;;;5.30;99.90;;;;;;5122321;27;19930;-88
2023/01/31 02:43:19;;;;;;;;;;;3.00;99.90;;;;;;5125259;27;20018;-88
2023/01/31 02:46:11;;;;;;;;;;;3.20;99.90;;;;;;5121402;27;20018;-88
2023/01/31 02:49:00;;;;;;;;;;;3.00;99.90;;;;;;5136292;27;19923;-89
2023/01/31 02:52:14;;;;;;;;;;;3.10;99.90;;;;;;5133438;27;19923;-88
2023/01/31 02:56:13;;;;;;;;;;;3.00;99.90;;;;;;5135750;27;20006;-88
2023/01/31 02:57:21;;;;;;;;;;;1.60;99.90;;;;;;5132485;27;19987;-87
2023/01/31 02:59:49;;;;;;;;;;;1.50;99.90;;;;;;5100021;27;20409;-88
2023/01/31 03:02:17;;;;;;;;;;;1.60;99.90;;;;;;5112471;27;19923;-88
2023/01/31 03:04:48;;;;;;;;;;;3.00;99.90;;;;;;5136480;27;19951;-88
2023/01/31 03:07:25;;;;;;;;;;;3.40;99.90;;;;;;5114878;27;19931;-88
2023/01/31 03:10:14;;;;;;;;;;;2.80;99.90;;;;;;5111422;27;20434;-88
2023/01/31 03:12:42;;;;;;;;;;;3.00;99.90;;;;;;5114708;27;19947;-89
2023/01/31 03:17:30;;;;;;;;;;;5.90;99.90;;;;;;5116032;27;19931;-88
2023/01/31 03:18:27;;;;;;;;;;;3.20;99.90;;;;;;5129233;27;20018;-87
2023/01/31 03:21:21;;;;;;;;;;;2.80;99.90;;;;;;5115537;27;19999;-89
2023/01/31 03:23:58;;;;;;;;;;;1.50;99.90;;;;;;5111549;27;20295;-88
2023/01/31 03:26:24;;;;;;;;;;;3.20;99.90;;;;;;5115460;27;19928;-88
2023/01/31 03:28:59;;;;;;;;;;;5.40;99.90;;;;;;5132615;27;19997;-88
2023/01/31 03:31:44;;;;;;;;;;;5.60;99.90;;;;;;5117173;27;19977;-88
2023/01/31 03:34:11;;;;;;;;;;;2.90;99.90;;;;;;5116726;27;20371;-88
2023/01/31 03:36:58;;;;;;;;;;;3.30;99.90;;;;;;5130595;27;19930;-88
2023/01/31 03:39:42;;;;;;;;;;;1.40;99.90;;;;;;5111907;27;20462;-89
2023/01/31 03:42:14;;;;;;;;;;;1.80;99.90;;;;;;5116464;27;19923;-88
2023/01/31 03:44:51;;;;;;;;;;;3.80;99.90;;;;;;5133283;27;19978;-88
2023/01/31 03:47:33;;;;;;;;;;;;;;;;;;;;;
2023/01/31 03:50:04;;;;;;;;;;;3.90;99.90;;;;;;5118900;27;20002;-88
2023/01/31 03:52:41;;;;;;;;;;;4.80;99.90;;;;;;5106431;27;20360;-87
2023/01/31 03:55:29;;;;;;;;;;;3.00;99.90;;;;;;5109407;28;19924;-88
2023/01/31 03:58:07;;;;;;;;;;;3.20;99.90;;;;;;5124007;27;19924;-88
2023/01/31 04:00:37;;;;;;;;;;;2.00;99.90;;;;;;5101039;27;19923;-87
2023/01/31 04:03:25;;;;;;;;;;;3.70;99.90;;;;;;5112586;27;19923;-88
2023/01/31 04:05:50;;;;;;;;;;;3.10;99.90;;;;;;5110611;28;19923;-89
2023/01/31 04:08:16;;;;;;;;;;;3.40;99.90;;;;;;5114810;27;19976;-88
2023/01/31 04:10:45;;;;;;;;;;;1.30;99.90;;;;;;5115618;27;20006;-88
2023/01/31 04:13:11;;;;;;;;;;;6.70;99.90;;;;;;5108013;27;19924;-88
2023/01/31 04:15:39;;;;;;;;;;;3.00;99.90;;;;;;5116767;27;20007;-89
2023/01/31 04:18:26;;;;;;;;;;;2.20;99.90;;;;;;5112961;27;19931;-88
2023/01/31 04:21:17;;;;;;;;;;;4.10;99.90;;;;;;5101909;27;20416;-88
2023/01/31 04:23:50;;;;;;;;;;;4.00;99.90;;;;;;5097505;27;20006;-89
2023/01/31 04:26:25;;;;;;;;;;;4.20;99.90;;;;;;5109473;28;20023;-89
2023/01/31 04:29:08;;;;;;;;;;;1.70;99.90;;;;;;5127731;27;20271;-91
2023/01/31 04:31:39;;;;;;;;;;;3.80;99.90;;;;;;5106240;27;19931;-89
2023/01/31 04:34:14;;;;;;;;;;;;;;;;;;;;;
2023/01/31 04:36:43;;;;;;;;;;;4.70;99.90;;;;;;5124907;27;19924;-88
2023/01/31 04:39:09;;;;;;;;;;;5.00;99.90;;;;;;5107939;27;19924;-88
2023/01/31 04:41:37;;;;;;;;;;;4.50;99.90;;;;;;5115751;27;20378;-88
2023/01/31 04:44:18;;;;;;;;;;;6.80;99.90;;;;;;5111668;27;19927;-88
2023/01/31 04:46:45;;;;;;;;;;;4.90;99.90;;;;;;5114047;27;19927;-88
2023/01/31 04:49:22;;;;;;;;;;;3.90;99.90;;;;;;5110220;27;19976;-87
2023/01/31 04:51:47;;;;;;;;;;;5.50;99.90;;;;;;5113388;27;19923;-88
2023/01/31 04:54:15;;;;;;;;;;;3.80;99.90;;;;;;5101857;28;19928;-88
2023/01/31 04:56:54;;;;;;;;;;;;;;;;;;;;;
2023/01/31 04:59:38;;;;;;;;;;;5.00;99.90;;;;;;5136274;27;19942;-89
2023/01/31 05:02:06;;;;;;;;;;;2.20;99.90;;;;;;5129298;27;19915;-89
2023/01/31 05:04:41;;;;;;;;;;;2.70;99.90;;;;;;5134607;27;19911;-90
2023/01/31 05:07:12;;;;;;;;;;;4.00;99.90;;;;;;5145735;27;19989;-88
2023/01/31 05:09:45;;;;;;;;;;;6.70;99.90;;;;;;5141966;27;19927;-88
2023/01/31 05:12:27;;;;;;;;;;;4.50;99.90;;;;;;5129390;27;19931;-88
2023/01/31 05:14:55;;;;;;;;;;;4.70;99.90;;;;;;5116015;28;19924;-88
2023/01/31 05:17:28;;;;;;;;;;;4.00;99.90;;;;;;5133381;28;19935;-88
2023/01/31 05:20:15;;;;;;;;;;;1.70;99.90;;;;;;5130515;28;19927;-89
2023/01/31 05:22:49;;;;;;;;;;;4.00;99.90;;;;;;5113473;28;20298;-89
2023/01/31 05:25:15;;;;;;;;;;;2.90;99.90;;;;;;5094212;28;19938;-88
2023/01/31 05:27:43;;;;;;;;;;;4.70;99.90;;;;;;5106313;28;19935;-88
2023/01/31 05:30:17;;;;;;;;;;;6.90;99.90;;;;;;5115043;28;19930;-88
2023/01/31 05:32:57;;;;;;;;;;;4.20;99.90;;;;;;5130420;28;19924;-88
2023/01/31 05:35:40;;;;;;;;;;;;;;;;;;;;;
2023/01/31 05:38:35;;;;;;;;;;;4.80;99.90;;;;;;5123298;28;19927;-89
2023/01/31 05:41:09;;;;;;;;;;;5.00;99.90;;;;;;5097569;28;19924;-89
2023/01/31 05:43:45;;;;;;;;;;;5.20;99.90;;;;;;5105312;28;19962;-89
2023/01/31 05:46:36;;;;;;;;;;;;;;;;;;;;;
2023/01/31 05:49:13;;;;;;;;;;;5.80;99.90;;;;;;5123533;27;19927;-88
2023/01/31 05:51:49;;;;;;;;;;;7.10;99.90;;;;;;5109564;28;19945;-90
2023/01/31 05:54:19;;;;;;;;;;;5.50;99.90;;;;;;5104974;27;19928;-88
2023/01/31 05:57:01;;;;;;;;;;;5.60;99.90;;;;;;5109746;27;19932;-88
2023/01/31 05:59:52;;;;;;;;;;;5.80;99.90;;;;;;5119433;27;19968;-89
2023/01/31 06:02:30;;;;;;;;;;;4.90;99.90;;;;;;5107452;27;20417;-91
2023/01/31 06:05:08;;;;;;;;;;;4.90;99.90;;;;;;5128650;27;19923;-90
2023/01/31 06:07:44;;;;;;;;;;;4.60;99.90;;;;;;5115008;27;19984;-90
2023/01/31 06:10:23;;;;;;;;;;;;;;;;;;;;;
2023/01/31 06:12:49;;;;;;;;;;;7.50;99.90;;;;;;5124047;27;20282;-89
2023/01/31 06:15:17;;;;;;;;;;;5.20;99.90;;;;;;5113946;28;19924;-90
2023/01/31 06:17:46;;;;;;;;;;;3.20;99.90;;;;;;5131901;27;20429;-89
2023/01/31 06:20:21;;;;;;;;;;;5.70;99.90;;;;;;5110223;28;19931;-90
2023/01/31 06:23:00;;;;;;;;;;;6.20;99.90;;;;;;5124938;27;19924;-89
2023/01/31 06:25:29;;;;;;;;;;;4.80;99.90;;;;;;5101636;27;19924;-89
2023/01/31 06:28:16;;;;;;;;;;;;;;;;;;;;;
2023/01/31 06:30:51;;;;;;;;;;;6.40;99.90;;;;;;5127611;27;20370;-89
2023/01/31 06:33:39;;;;;;;;;;;7.00;99.90;;;;;;5118333;27;20105;-89
2023/01/31 06:36:07;;;;;;;;;;;5.70;99.90;;;;;;5117832;27;19930;-89
2023/01/31 06:38:43;;;;;;;;;;;;;;;;;;;;;
2023/01/31 06:41:24;;;;;;;;;;;;;;;;;;;;;
2023/01/31 06:44:17;;;;;;;;;;;5.10;99.90;;;;;;5116971;27;19923;-90
2023/01/31 06:46:51;;;;;;;;;;;4.80;99.90;;;;;;5114464;27;20441;-94
2023/01/31 06:49:27;;;;;;;;;;;5.50;99.90;;;;;;5115777;27;19923;-89
2023/01/31 06:52:15;;;;;;;;;;;4.90;99.90;;;;;;5130858;27;19935;-89
2023/01/31 06:55:01;;;;;;;;;;;4.80;99.90;;;;;;5113599;27;19941;-91
2023/01/31 06:57:56;;;;;;;;;;;5.30;99.90;;;;;;5116930;27;19976;-91
2023/01/31 07:00:53;;;;;;;;;;;;;;;;;;;;;
2023/01/31 07:03:53;;;;;;;;;;;5.40;99.90;;;;;;5118693;27;19927;-91
2023/01/31 07:06:24;;;;;;;;;;;8.20;99.90;;;;;;5121608;27;20294;-89
2023/01/31 07:08:57;;;;;;;;;;;5.00;99.90;;;;;;5113725;27;19976;-90
2023/01/31 07:11:25;;;;;;;;;;;7.60;99.90;;;;;;5115204;27;19924;-90
2023/01/31 07:13:54;;;;;;;;;;;5.20;99.90;;;;;;5132678;27;19932;-90
2023/01/31 07:16:31;;;;;;;;;;;;;;;;;;;;;
2023/01/31 07:18:57;;;;;;;;;;;5.10;99.90;;;;;;5127091;27;19924;-89
2023/01/31 07:21:25;;;;;;;;;;;4.50;99.90;;;;;;5115951;27;19927;-90
2023/01/31 07:23:56;;;;;;;;;;;5.10;99.90;;;;;;5109250;27;19939;-90
2023/01/31 07:26:24;;;;;;;;;;;7.30;99.90;;;;;;5116124;27;20319;-90
2023/01/31 07:28:54;;;;;;;;;;;5.30;99.90;;;;;;5124770;27;19931;-90
2023/01/31 07:31:27;;;;;;;;;;;4.90;99.90;;;;;;5112108;27;20010;-89
2023/01/31 07:34:23;;;;;;;;;;;3.70;99.90;;;;;;5116169;27;19927;-89
2023/01/31 07:36:52;;;;;;;;;;;4.90;99.90;;;;;;5114199;27;20002;-89
2023/01/31 07:39:22;;;;;;;;;;;4.90;99.90;;;;;;5104760;27;19928;-90
2023/01/31 07:41:53;;;;;;;;;;;5.40;99.90;;;;;;5111426;27;19938;-90
2023/01/31 07:44:49;;;;;;;;;;;5.00;99.90;;;;;;5111962;27;19927;-91
2023/01/31 07:47:43;;;;;;;;;;;;;;;;;;;;;
2023/01/31 07:50:16;;;;;;;;;;;3.90;99.90;;;;;;5112333;27;19927;-88
2023/01/31 07:52:47;;;;;;;;;;;5.10;99.90;;;;;;5107043;27;20681;-88
2023/01/31 07:55:20;;;;;;;;;;;5.60;99.90;;;;;;5130777;27;20857;-89
2023/01/31 07:57:48;;;;;;;;;;;5.50;99.90;;;;;;5127088;27;19930;-88
2023/01/31 08:03:36;;;;;;;;;;;6.20;99.90;;;;;;5126204;27;19931;-89
2023/01/31 08:06:06;;;;;;;;;;;5.90;99.90;;;;;;5111194;27;20060;-88
2023/01/31 08:08:35;;;;;;;;;;;5.20;99.90;;;;;;5110469;27;20018;-87
2023/01/31 08:11:13;;;;;;;;;;;8.00;99.90;;;;;;5113918;27;19946;-89
2023/01/31 08:14:13;;;;;;;;;;;;;;;;;;;;;
2023/01/31 08:16:40;;;;;;;;;;;4.30;99.90;;;;;;5125837;27;19924;-88
2023/01/31 08:19:26;;;;;;;;;;;4.20;99.90;;;;;;5108196;27;20360;-88
2023/01/31 08:22:03;;;;;;;;;;;6.50;99.90;;;;;;5095001;27;19931;-90
2023/01/31 08:24:29;;;;;;;;;;;4.40;99.90;;;;;;5113407;27;19954;-88
2023/01/31 08:26:58;;;;;;;;;;;6.20;99.90;;;;;;5133455;27;19923;-90
2023/01/31 08:29:32;;;;;;;;;;;6.70;99.90;;;;;;5129348;27;20133;-88
2023/01/31 08:32:08;;;;;;;;;;;6.80;99.90;;;;;;5111675;27;20010;-88
2023/01/31 08:34:46;;;;;;;;;;;;;;;;;;;;;
2023/01/31 08:37:17;;;;;;;;;;;5.60;99.90;;;;;;5125336;27;19927;-87
2023/01/31 08:39:57;;;;;;;;;;;3.70;99.90;;;;;;5105872;27;19928;-89
2023/01/31 08:48:23;;;;;;;;;;;5.70;99.90;;;;;;5125511;27;19928;-87
2023/01/31 08:51:27;;;;;;;;;;;6.20;99.90;;;;;;5105579;27;20014;-89
2023/01/31 08:54:15;;;;;;;;;;;6.10;99.90;;;;;;5126448;27;19924;-89
2023/01/31 08:59:55;;;;;;;;;;;8.20;99.90;;;;;;5101796;27;19923;-88
2023/01/31 09:05:33;;;;;;;;;;;;;;;;;;;;;
2023/01/31 09:17:02;;;;;;;;;;;6.80;99.90;;;;;;5106383;28;19931;-89
2023/01/31 09:19:48;;;;;;;;;;;;;;;;;;;;;
2023/01/31 09:22:19;;;;;;;;;;;6.40;99.90;;;;;;5108998;28;19928;-88
2023/01/31 09:25:14;;;;;;;;;;;4.20;99.90;;;;;;5112007;28;19932;-90
2023/01/31 09:30:41;;;;;;;;;;;4.30;99.90;;;;;;5101808;27;19923;-90
2023/01/31 09:33:12;;;;;;;;;;;6.20;99.90;;;;;;5118459;27;19912;-89
2023/01/31 09:38:55;;;;;;;;;;;5.20;99.90;;;;;;5111135;27;19919;-88
2023/01/31 09:41:27;;;;;;;;;;;6.20;99.90;;;;;;5140376;27;19979;-89
2023/01/31 09:44:13;;;;;;;;;;;6.20;99.90;;;;;;5118655;28;19968;-90
2023/01/31 09:46:57;;;;;;;;;;;6.20;99.90;;;;;;5099798;28;19935;-89
2023/01/31 09:49:31;;;;;;;;;;;6.40;99.90;;;;;;5129424;27;19923;-88
2023/01/31 09:52:02;;;;;;;;;;;5.00;99.90;;;;;;5151820;27;19974;-88
2023/01/31 09:54:35;;;;;;;;;;;5.60;99.90;;;;;;5107150;27;19924;-87
2023/01/31 09:57:21;;;;;;;;;;;6.60;99.90;;;;;;5101130;28;19979;-88
2023/01/31 10:00:11;;;;;;;;;;;6.30;99.90;;;;;;5082042;28;19928;-88
2023/01/31 10:02:44;;;;;;;;;;;6.30;99.90;;;;;;5114640;27;20014;-87
2023/01/31 10:05:36;;;;;;;;;;;6.30;99.90;;;;;;5107386;27;20282;-87
2023/01/31 10:08:14;;;;;;;;;;;6.30;99.90;;;;;;5104538;27;19923;-89
2023/01/31 10:11:03;;;;;;;;;;;7.90;99.90;;;;;;5114276;27;19934;-90
2023/01/31 10:13:35;;;;;;;;;;;9.00;99.90;;;;;;5128446;27;20378;-88
2023/01/31 10:16:04;;;;;;;;;;;6.40;99.90;;;;;;5115527;27;20012;-90
2023/01/31 10:18:42;;;;;;;;;;;6.70;99.90;;;;;;5111081;27;20014;-89
2023/01/31 10:24:27;;;;;;;;;;;9.00;99.90;;;;;;5127708;27;20372;-88
2023/01/31 10:26:57;;;;;;;;;;;6.30;99.90;;;;;;5096930;27;19924;-88
2023/01/31 10:29:27;;;;;;;;;;;4.50;99.90;;;;;;5135481;27;19923;-90
2023/01/31 10:32:17;;;;;;;;;;;;;;;;;;;;;
2023/01/31 10:34:49;;;;;;;;;;;6.20;99.90;;;;;;5131607;27;20022;-88
2023/01/31 10:37:31;;;;;;;;;;;6.30;99.90;;;;;;5130293;27;20023;-88
2023/01/31 10:40:07;;;;;;;;;;;5.10;99.90;;;;;;5115225;27;19980;-90
2023/01/31 10:48:51;;;;;;;;;;;6.20;99.90;;;;;;5125369;27;19928;-90
2023/01/31 10:51:30;;;;;;;;;;;;;;;;;;;;;
2023/01/31 10:54:11;;;;;;;;;;;6.10;99.90;;;;;;5137390;27;19955;-89
2023/01/31 10:56:41;;;;;;;;;;;5.90;99.90;;;;;;5127238;27;20382;-89
2023/01/31 10:59:24;;;;;;;;;;;5.40;99.90;;;;;;5112846;27;19946;-88
2023/01/31 11:02:10;;;;;;;;;;;6.70;99.90;;;;;;5108187;27;19923;-89
2023/01/31 11:04:40;;;;;;;;;;;6.30;99.90;;;;;;5068822;27;19923;-89
2023/01/31 11:07:13;;;;;;;;;;;6.80;99.90;;;;;;5131319;27;20007;-88
2023/01/31 11:09:45;;;;;;;;;;;6.20;99.90;;;;;;5129821;27;20019;-92
2023/01/31 11:12:13;;;;;;;;;;;6.20;99.90;;;;;;5113171;27;20766;-87
2023/01/31 11:14:44;;;;;;;;;;;6.40;99.90;;;;;;5115193;27;19927;-88
2023/01/31 11:17:23;;;;;;;;;;;6.30;99.90;;;;;;5101614;27;19926;-91
2023/01/31 11:19:54;;;;;;;;;;;5.70;99.90;;;;;;5119337;27;19978;-88
2023/01/31 11:22:55;;;;;;;;;;;6.10;99.90;;;;;;5099566;27;19927;-89
2023/01/31 11:25:32;;;;;;;;;;;6.50;99.90;;;;;;5133735;27;19927;-89
2023/01/31 11:28:17;;;;;;;;;;;6.30;99.90;;;;;;5114277;27;19931;-90
2023/01/31 11:30:46;;;;;;;;;;;6.90;99.90;;;;;;5114857;27;19951;-88
2023/01/31 11:33:42;;;;;;;;;;;6.60;99.90;;;;;;5131006;27;20019;-89
2023/01/31 11:36:21;;;;;;;;;;;5.40;99.90;;;;;;5118051;27;20279;-89
2023/01/31 11:38:53;;;;;;;;;;;6.70;99.90;;;;;;5114810;27;19923;-89
2023/01/31 11:41:28;;;;;;;;;;;8.60;99.90;;;;;;5115998;27;20280;-88
2023/01/31 11:44:42;;;;;;;;;;;6.30;99.90;;;;;;5115211;27;19923;-89
2023/01/31 11:47:16;;;;;;;;;;;5.60;99.90;;;;;;5080103;27;20018;-90
2023/01/31 11:49:54;;;;;;;;;;;6.60;99.90;;;;;;5098979;27;19923;-88
2023/01/31 11:55:17;;;;;;;;;;;6.80;99.90;;;;;;5120421;27;20345;-89
2023/01/31 11:58:15;;;;;;;;;;;6.40;99.90;;;;;;5118705;27;19923;-88
2023/01/31 12:01:00;;;;;;;;;;;7.00;99.90;;;;;;5116377;27;19938;-89
2023/01/31 12:03:48;;;;;;;;;;;7.00;99.90;;;;;;5126963;27;19974;-87
2023/01/31 12:06:34;;;;;;;;;;;8.80;99.90;;;;;;5114428;27;19943;-88
2023/01/31 12:09:01;;;;;;;;;;;7.10;99.90;;;;;;5110660;27;19923;-86
2023/01/31 12:11:29;;;;;;;;;;;7.20;99.90;;;;;;5112877;27;19927;-86
2023/01/31 12:14:08;;;;;;;;;;;7.30;99.90;;;;;;5123516;27;19931;-88
2023/01/31 12:16:46;;;;;;;;;;;7.40;99.90;;;;;;5118875;27;19927;-92
2023/01/31 12:19:39;;;;;;;;;;;7.00;99.90;;;;;;5109320;27;20011;-88
2023/01/31 12:22:55;;;;;;;;;;;7.10;99.90;;;;;;5132978;27;20282;-89
2023/01/31 12:25:27;;;;;;;;;;;7.60;99.90;;;;;;5106978;27;19932;-88
2023/01/31 12:28:00;;;;;;;;;;;7.40;99.90;;;;;;5114943;27;19931;-88
2023/01/31 12:30:54;;;;;;;;;;;;;;;;;;;;;
2023/01/31 12:33:47;;;;;;;;;;;7.50;99.90;;;;;;5126385;27;19931;-88
2023/01/31 12:36:18;;;;;;;;;;;7.40;99.90;;;;;;5132019;27;19979;-91
2023/01/31 12:38:49;;;;;;;;;;;7.40;99.90;;;;;;5104772;27;19938;-90
2023/01/31 12:41:20;;;;;;;;;;;7.40;99.90;;;;;;5115355;27;19934;-90
2023/01/31 12:44:17;;;;;;;;;;;6.30;99.90;;;;;;5114766;27;20065;-92
2023/01/31 12:53:18;;;;;;;;;;;7.70;99.90;;;;;;5114646;27;19927;-89
2023/01/31 12:59:13;;;;;;;;;;;8.20;99.90;;;;;;5135355;27;19931;-90
2023/01/31 13:02:01;;;;;;;;;;;8.30;99.90;;;;;;5108783;27;19984;-88
2023/01/31 13:04:44;;;;;;;;;;;7.80;99.90;;;;;;5105142;27;20382;-89
2023/01/31 13:14:34;;;;;;;;;;;6.10;99.90;;;;;;5085312;27;19927;-92
2023/01/31 13:17:31;;;;;;;;;;;8.30;99.90;;;;;;5104336;27;19923;-90
2023/01/31 13:20:29;;;;;;;;;;;8.10;99.90;;;;;;5026225;27;20409;-89
2023/01/31 13:23:02;;;;;;;;;;;7.70;99.90;;;;;;5111193;27;19924;-89
2023/01/31 13:25:28;;;;;;;;;;;7.70;99.90;;;;;;5114604;27;19923;-89
2023/01/31 13:28:05;;;;;;;;;;;8.20;99.90;;;;;;5116529;27;19931;-90
2023/01/31 13:34:00;;;;;;;;;;;7.70;99.90;;;;;;5118260;27;20355;-91
2023/01/31 13:37:14;;;;;;;;;;;;;;;;;;;;;
2023/01/31 13:39:45;;;;;;;;;;;6.50;99.90;;;;;;5073012;27;19930;-89
2023/01/31 13:42:26;;;;;;;;;;;;;;;;;;;;;
2023/01/31 13:45:06;;;;;;;;;;;8.30;99.90;;;;;;5131295;27;19929;-90
2023/01/31 13:47:50;;;;;;;;;;;7.70;99.90;;;;;;5115026;27;19967;-89
2023/01/31 13:50:54;;;;;;;;;;;7.80;99.90;;;;;;5116023;27;19928;-88
2023/01/31 13:53:25;;;;;;;;;;;8.30;99.90;;;;;;5011103;28;19932;-91
2023/01/31 13:55:56;;;;;;;;;;;8.00;99.90;;;;;;5095722;27;19927;-89
2023/01/31 13:58:48;;;;;;;;;;;7.80;99.90;;;;;;5126983;27;19927;-90
2023/01/31 14:01:18;;;;;;;;;;;9.90;99.90;;;;;;5156985;27;19958;-90
2023/01/31 14:04:20;;;;;;;;;;;8.10;99.90;;;;;;5127890;28;19930;-89
2023/01/31 14:06:57;;;;;;;;;;;7.80;99.90;;;;;;5104459;27;19923;-90
2023/01/31 14:09:28;;;;;;;;;;;6.90;99.90;;;;;;5132517;27;19922;-90
2023/01/31 14:11:59;;;;;;;;;;;8.00;99.90;;;;;;5149762;27;19930;-89
2023/01/31 14:14:25;;;;;;;;;;;8.00;99.90;;;;;;5133956;27;19938;-89
2023/01/31 14:17:01;;;;;;;;;;;;;;;;;;;;;
2023/01/31 14:19:45;;;;;;;;;;;9.80;99.90;;;;;;5166828;27;19931;-91
2023/01/31 14:22:48;;;;;;;;;;;;;;;;;;;;;
2023/01/31 14:25:41;;;;;;;;;;;8.50;99.90;;;;;;5136618;27;19924;-88
2023/01/31 14:28:11;;;;;;;;;;;8.10;99.90;;;;;;5130617;27;20351;-93
2023/01/31 14:30:58;;;;;;;;;;;6.30;99.90;;;;;;5130727;27;19930;-89
2023/01/31 14:33:47;;;;;;;;;;;6.40;99.90;;;;;;5139908;27;19933;-89
2023/01/31 14:36:36;;;;;;;;;;;7.90;99.90;;;;;;5127956;27;19974;-90
2023/01/31 14:39:23;;;;;;;;;;;8.50;99.90;;;;;;5149333;27;19934;-88
2023/01/31 14:42:19;;;;;;;;;;;8.10;99.90;;;;;;5115106;27;19975;-91
2023/01/31 14:44:50;;;;;;;;;;;9.10;99.90;;;;;;5139094;27;19987;-88
2023/01/31 14:57:12;;;;;;;;;;;8.30;99.90;;;;;;5136817;27;19974;-90
2023/01/31 15:02:58;;;;;;;;;;;8.30;99.90;;;;;;5131258;27;19927;-89
2023/01/31 15:05:41;;;;;;;;;;;7.90;99.90;;;;;;5109380;27;19979;-87
2023/01/31 15:08:34;;;;;;;;;;;8.10;99.90;;;;;;5119098;27;19931;-90
2023/01/31 15:14:35;;;;;;;;;;;6.30;99.90;;;;;;5113967;27;19931;-90
2023/01/31 15:20:42;;;;;;;;;;;6.00;99.90;;;;;;5126960;27;20317;-88
2023/01/31 15:23:19;;;;;;;;;;;7.80;99.90;;;;;;5130043;27;19923;-87
2023/01/31 15:26:15;;;;;;;;;;;7.70;99.90;;;;;;5130644;27;19934;-89
2023/01/31 15:28:44;;;;;;;;;;;7.80;99.90;;;;;;5100079;27;19988;-88
2023/01/31 15:31:36;;;;;;;;;;;10.00;99.90;;;;;;5112063;27;19923;-90
2023/01/31 15:34:05;;;;;;;;;;;7.70;99.90;;;;;;5106375;27;20001;-88
2023/01/31 15:36:46;;;;;;;;;;;7.20;99.90;;;;;;5112483;27;19923;-90
2023/01/31 15:39:39;;;;;;;;;;;8.60;99.90;;;;;;5132153;27;20038;-88
2023/01/31 15:42:25;;;;;;;;;;;7.40;99.90;;;;;;5138584;27;20021;-89
2023/01/31 15:45:09;;;;;;;;;;;5.60;99.90;;;;;;5104142;27;20383;-89
2023/01/31 15:50:50;;;;;;;;;;;7.50;99.90;;;;;;5105806;27;19927;-91
2023/01/31 15:53:32;;;;;;;;;;;7.20;99.90;;;;;;5113070;27;19931;-88
2023/01/31 15:56:01;;;;;;;;;;;7.50;99.90;;;;;;5119760;27;19923;-89
2023/01/31 15:58:48;;;;;;;;;;;;;;;;;;;;;
2023/01/31 16:01:17;;;;;;;;;;;7.20;99.90;;;;;;5128979;27;20025;-88
2023/01/31 16:04:03;;;;;;;;;;;6.10;99.90;;;;;;5124151;27;19923;-88
2023/01/31 16:06:40;;;;;;;;;;;8.70;99.90;;;;;;5106260;27;19973;-90
2023/01/31 16:09:09;;;;;;;;;;;5.50;99.90;;;;;;5111350;27;20012;-87
2023/01/31 16:11:37;;;;;;;;;;;6.80;99.90;;;;;;5098156;28;20402;-86
2023/01/31 16:14:13;;;;;;;;;;;6.70;99.90;;;;;;5108539;28;20376;-89
2023/01/31 16:16:45;;;;;;;;;;;6.50;99.90;;;;;;5078805;28;19924;-90
2023/01/31 16:22:35;;;;;;;;;;;6.40;99.90;;;;;;5103651;28;20807;-90
2023/01/31 16:25:06;;;;;;;;;;;7.20;99.90;;;;;;5092655;28;20299;-88
2023/01/31 16:27:38;;;;;;;;;;;6.40;99.90;;;;;;5116832;27;20398;-87
2023/01/31 16:30:06;;;;;;;;;;;6.30;99.90;;;;;;5092466;27;19957;-88
2023/01/31 16:32:40;;;;;;;;;;;6.60;99.90;;;;;;5088617;27;19931;-91
2023/01/31 16:38:01;;;;;;;;;;;6.40;99.90;;;;;;5097589;28;20048;-88
2023/01/31 16:40:33;;;;;;;;;;;7.10;99.90;;;;;;5108165;28;19924;-88
2023/01/31 16:43:14;;;;;;;;;;;6.20;99.90;;;;;;5085449;28;20341;-88
2023/01/31 16:45:48;;;;;;;;;;;6.20;99.90;;;;;;5087794;28;19931;-91
2023/01/31 16:48:30;;;;;;;;;;;6.60;99.90;;;;;;5089457;28;19935;-88
2023/01/31 16:51:01;;;;;;;;;;;6.60;99.90;;;;;;5108650;28;19932;-90
2023/01/31 16:53:34;;;;;;;;;;;5.70;99.90;;;;;;5095159;28;20056;-89
2023/01/31 16:56:12;;;;;;;;;;;6.90;99.90;;;;;;5080136;28;20036;-87
2023/01/31 16:58:46;;;;;;;;;;;4.00;99.90;;;;;;5082626;28;19990;-88
2023/01/31 17:01:23;;;;;;;;;;;5.50;99.90;;;;;;5094417;28;19930;-89
2023/01/31 17:04:07;;;;;;;;;;;4.30;99.90;;;;;;5087488;28;19931;-89
2023/01/31 17:06:37;;;;;;;;;;;6.00;99.90;;;;;;5086221;28;19935;-89
2023/01/31 17:09:05;;;;;;;;;;;5.90;99.90;;;;;;5094961;28;19923;-92
2023/01/31 17:12:14;;;;;;;;;;;6.20;99.90;;;;;;5095149;28;19932;-91
2023/01/31 17:15:02;;;;;;;;;;;6.80;99.90;;;;;;5079237;28;19931;-89
2023/01/31 17:17:54;;;;;;;;;;;5.90;99.90;;;;;;5085526;28;20395;-91
2023/01/31 17:20:27;;;;;;;;;;;5.80;99.90;;;;;;5110992;28;19993;-89
2023/01/31 17:22:55;;;;;;;;;;;5.70;99.90;;;;;;5100991;28;19928;-90
2023/01/31 17:25:28;;;;;;;;;;;6.20;99.90;;;;;;5091185;28;19984;-88
2023/01/31 17:28:10;;;;;;;;;;;5.80;99.90;;;;;;5084714;28;19962;-93
2023/01/31 17:30:50;;;;;;;;;;;4.20;99.90;;;;;;5091850;28;19924;-89
2023/01/31 17:33:32;;;;;;;;;;;5.80;99.90;;;;;;5089400;28;19938;-90
2023/01/31 17:35:58;;;;;;;;;;;7.00;99.90;;;;;;5085494;28;19924;-90
2023/01/31 17:38:29;;;;;;;;;;;6.00;99.90;;;;;;5091620;28;19931;-89
2023/01/31 17:41:36;;;;;;;;;;;5.90;99.90;;;;;;5095550;28;19967;-89
2023/01/31 17:44:21;;;;;;;;;;;5.50;99.90;;;;;;5116270;28;19924;-90
2023/01/31 17:46:49;;;;;;;;;;;5.80;99.90;;;;;;5108355;28;19932;-89
2023/01/31 17:49:17;;;;;;;;;;;6.20;99.90;;;;;;5093111;28;19931;-90
2023/01/31 17:51:48;;;;;;;;;;;6.20;99.90;;;;;;5087429;28;19931;-88